createdAt,value
2024-02-18T00:02:17.874Z,6.70
2024-02-18T00:07:22.167Z,6.90
2024-02-18T00:12:25.849Z,6.83
2024-02-18T00:17:30.522Z,6.92
2024-02-18T00:22:33.662Z,6.96
2024-02-18T00:27:36.983Z,6.84
2024-02-18T00:32:41.449Z,6.76
2024-02-18T00:37:44.560Z,6.67
2024-02-18T00:42:47.695Z,6.63
2024-02-18T00:47:52.271Z,6.74
2024-02-18T00:52:55.903Z,6.98
2024-02-18T00:57:59.163Z,7.04
2024-02-18T01:03:03.813Z,7.08
2024-02-18T01:08:07.453Z,6.98
2024-02-18T01:13:10.876Z,6.85
2024-02-18T01:18:17.381Z,6.92
2024-02-18T01:23:20.684Z,6.93
2024-02-18T01:28:25.471Z,6.97
2024-02-18T01:33:30.008Z,6.93
2024-02-18T01:38:33.990Z,7.02
2024-02-18T01:43:37.241Z,7.00
2024-02-18T01:48:41.891Z,6.85
2024-02-18T01:53:45.721Z,6.74
2024-02-18T01:58:49.154Z,6.77
2024-02-18T02:03:56.737Z,6.88
2024-02-18T02:09:00.330Z,6.92
2024-02-18T02:14:04.118Z,6.85
2024-02-18T02:19:08.688Z,6.83
2024-02-18T02:24:11.832Z,6.87
2024-02-18T02:29:17.456Z,6.88
2024-02-18T02:34:20.977Z,6.92
2024-02-18T02:39:24.197Z,7.07
2024-02-18T02:44:28.653Z,7.01
2024-02-18T02:49:31.921Z,7.10
2024-02-18T02:54:36.464Z,6.88
2024-02-18T02:59:41.301Z,6.88
2024-02-18T03:04:44.449Z,6.91
2024-02-18T03:09:47.636Z,6.92
2024-02-18T03:14:52.423Z,6.91
2024-02-18T03:19:55.851Z,6.92
2024-02-18T03:25:01.291Z,6.76
2024-02-18T03:30:07.864Z,6.76
2024-02-18T03:35:11.262Z,6.70
2024-02-18T03:40:15.204Z,6.55
2024-02-18T03:45:19.839Z,6.49
2024-02-18T03:50:22.970Z,6.16
2024-02-18T03:55:28.037Z,6.06
2024-02-18T04:00:32.564Z,6.10
2024-02-18T04:05:35.734Z,6.04
2024-02-18T04:10:38.920Z,6.00
2024-02-18T04:15:43.651Z,5.90
2024-02-18T04:20:47.327Z,5.90
2024-02-18T04:25:50.426Z,5.84
2024-02-18T04:30:54.961Z,5.74
2024-02-18T04:35:58.083Z,5.66
2024-02-18T04:41:01.638Z,5.37
2024-02-18T04:46:06.396Z,5.39
2024-02-18T04:51:10.220Z,5.36
2024-02-18T04:56:13.372Z,5.43
2024-02-18T05:01:18.182Z,5.41
2024-02-18T05:06:21.426Z,5.52
2024-02-18T05:11:24.563Z,5.56
2024-02-18T05:16:29.513Z,5.65
2024-02-18T05:21:32.747Z,5.62
2024-02-18T05:26:35.912Z,5.61
2024-02-18T05:31:40.472Z,5.59
2024-02-18T05:36:44.761Z,5.39
2024-02-18T05:41:47.925Z,5.18
2024-02-18T05:46:52.361Z,5.11
2024-02-18T05:51:56.258Z,5.16
2024-02-18T05:56:59.389Z,5.10
2024-02-18T06:02:04.178Z,5.00
2024-02-18T06:07:07.352Z,5.07
2024-02-18T06:12:10.889Z,4.84
2024-02-18T06:17:15.343Z,4.95
2024-02-18T06:22:18.501Z,4.86
2024-02-18T06:27:21.982Z,4.57
2024-02-18T06:32:26.564Z,4.39
2024-02-18T06:37:29.714Z,4.36
2024-02-18T06:42:32.868Z,4.32
2024-02-18T06:47:37.461Z,4.47
2024-02-18T06:52:40.544Z,4.58
2024-02-18T06:57:46.205Z,4.72
2024-02-18T07:02:50.721Z,4.91
2024-02-18T07:07:54.017Z,5.02
2024-02-18T07:12:57.199Z,5.17
2024-02-18T07:18:01.761Z,5.11
2024-02-18T07:23:05.355Z,5.14
2024-02-18T07:28:08.645Z,5.18
2024-02-18T07:33:13.734Z,5.27
2024-02-18T07:38:16.849Z,5.35
2024-02-18T07:43:20.088Z,5.45
2024-02-18T07:48:24.788Z,5.60
2024-02-18T07:53:28.106Z,5.60
2024-02-18T07:58:31.288Z,5.93
2024-02-18T08:03:35.824Z,5.99
2024-02-18T08:08:38.971Z,6.10
2024-02-18T08:13:42.097Z,6.48
2024-02-18T08:18:46.646Z,6.63
2024-02-18T08:23:49.900Z,6.77
2024-02-18T08:28:54.044Z,6.93
2024-02-18T08:33:58.921Z,7.65
2024-02-18T08:39:02.163Z,8.06
2024-02-18T08:44:05.534Z,8.26
2024-02-18T08:49:10.020Z,8.64
2024-02-18T08:54:13.211Z,8.77
2024-02-18T08:59:16.311Z,9.00
2024-02-18T09:04:21.066Z,9.36
2024-02-18T09:09:24.264Z,9.67
2024-02-18T09:14:27.436Z,10.09
2024-02-18T09:19:32.043Z,10.52
2024-02-18T09:24:35.286Z,10.81
2024-02-18T09:29:39.186Z,10.66
2024-02-18T09:34:43.712Z,10.70
2024-02-18T09:39:46.879Z,10.78
2024-02-18T09:44:50.949Z,11.16
2024-02-18T09:49:55.910Z,11.52
2024-02-18T09:55:00.260Z,11.60
2024-02-18T10:00:03.756Z,11.88
2024-02-18T10:05:10.415Z,12.04
2024-02-18T10:10:13.877Z,12.21
2024-02-18T10:15:17.699Z,12.48
2024-02-18T10:20:22.468Z,12.77
2024-02-18T10:25:25.926Z,12.89
2024-02-18T10:30:29.388Z,12.96
2024-02-18T10:35:34.429Z,13.05
2024-02-18T10:45:46.725Z,13.41
2024-02-18T10:50:51.964Z,13.35
2024-02-18T10:56:05.177Z,13.54
2024-02-18T11:01:13.889Z,13.69
2024-02-18T11:06:19.964Z,13.81
2024-02-18T11:11:23.724Z,13.97
2024-02-18T11:16:28.181Z,14.08
2024-02-18T11:21:33.865Z,14.24
2024-02-18T11:26:37.064Z,14.40
2024-02-18T11:31:40.336Z,14.67
2024-02-18T11:36:44.847Z,14.63
2024-02-18T11:41:48.002Z,14.86
2024-02-18T11:46:51.492Z,14.91
2024-02-18T11:51:56.058Z,14.92
2024-02-18T11:56:59.993Z,15.10
2024-02-18T12:02:03.642Z,14.94
2024-02-18T12:07:09.055Z,15.24
2024-02-18T12:12:12.418Z,15.14
2024-02-18T12:17:15.528Z,15.08
2024-02-18T12:22:24.449Z,15.09
2024-02-18T12:27:27.587Z,15.13
2024-02-18T12:32:30.752Z,14.92
2024-02-18T12:37:36.783Z,14.85
2024-02-18T12:42:50.049Z,14.83
2024-02-18T12:48:03.612Z,14.84
2024-02-18T12:53:08.154Z,15.16
2024-02-18T12:58:11.381Z,14.94
2024-02-18T13:03:19.346Z,15.02
2024-02-18T13:08:25.082Z,14.93
2024-02-18T13:13:29.293Z,15.06
2024-02-18T13:18:32.825Z,14.94
2024-02-18T13:23:41.350Z,14.98
2024-02-18T13:28:44.477Z,15.01
2024-02-18T13:33:47.817Z,14.96
2024-02-18T13:38:52.302Z,14.94
2024-02-18T13:43:55.390Z,15.00
2024-02-18T13:48:58.663Z,15.29
2024-02-18T13:54:03.551Z,14.99
2024-02-18T13:59:07.129Z,15.13
2024-02-18T14:04:10.308Z,15.01
2024-02-18T14:09:14.835Z,14.89
2024-02-18T14:14:18.238Z,14.85
2024-02-18T14:19:22.047Z,14.64
2024-02-18T14:24:26.837Z,14.81
2024-02-18T14:29:30.059Z,14.69
2024-02-18T14:34:34.370Z,14.66
2024-02-18T14:39:38.876Z,14.67
2024-02-18T14:44:42.155Z,14.56
2024-02-18T14:49:48.235Z,14.43
2024-02-18T14:54:54.193Z,14.37
2024-02-18T14:59:57.668Z,14.46
2024-02-18T15:05:00.926Z,14.42
2024-02-18T15:10:06.505Z,14.37
2024-02-18T15:15:10.655Z,14.37
2024-02-18T15:20:13.984Z,14.01
2024-02-18T15:25:18.735Z,13.87
2024-02-18T15:30:21.870Z,13.79
2024-02-18T15:35:25.079Z,13.73
2024-02-18T15:40:29.641Z,13.64
2024-02-18T15:45:33.559Z,13.59
2024-02-18T15:50:36.832Z,13.61
2024-02-18T15:55:49.612Z,13.69
2024-02-18T16:01:01.867Z,13.65
2024-02-18T16:06:06.260Z,13.26
2024-02-18T16:11:12.367Z,13.15
2024-02-18T16:16:17.704Z,13.01
2024-02-18T16:21:21.028Z,12.91
2024-02-18T16:26:25.889Z,12.60
2024-02-18T16:31:28.958Z,12.47
2024-02-18T16:36:32.071Z,12.37
2024-02-18T16:41:39.777Z,12.28
2024-02-18T16:46:43.038Z,12.18
2024-02-18T16:51:46.314Z,12.06
2024-02-18T16:56:51.894Z,12.01
2024-02-18T17:01:55.400Z,11.89
2024-02-18T17:06:58.701Z,11.83
2024-02-18T17:12:03.713Z,11.77
2024-02-18T17:17:07.070Z,11.67
2024-02-18T17:22:10.592Z,11.57
2024-02-18T17:27:15.199Z,11.50
2024-02-18T17:32:18.313Z,11.40
2024-02-18T17:37:21.439Z,11.31
2024-02-18T17:42:25.905Z,11.30
2024-02-18T17:47:29.953Z,11.25
2024-02-18T17:52:33.146Z,11.19
2024-02-18T17:57:39.461Z,11.10
2024-02-18T18:02:42.694Z,11.02
2024-02-18T18:07:45.957Z,10.99
2024-02-18T18:12:51.903Z,10.99
2024-02-18T18:17:55.216Z,10.95
2024-02-18T18:22:58.708Z,10.94
2024-02-18T18:28:03.349Z,10.99
2024-02-18T18:33:06.750Z,10.90
2024-02-18T18:38:09.910Z,10.89
2024-02-18T18:43:14.352Z,10.92
2024-02-18T18:48:17.603Z,10.95
2024-02-18T18:53:23.073Z,10.97
2024-02-18T18:58:27.534Z,10.87
2024-02-18T19:03:30.631Z,10.78
2024-02-18T19:08:33.882Z,10.80
2024-02-18T19:13:42.705Z,10.77
2024-02-18T19:18:47.226Z,10.75
2024-02-18T19:23:50.555Z,10.74
2024-02-18T19:28:54.974Z,10.76
2024-02-18T19:33:58.529Z,10.74
2024-02-18T19:39:05.189Z,10.66
2024-02-18T19:44:09.730Z,10.64
2024-02-18T19:49:13.364Z,10.50
2024-02-18T19:54:17.010Z,10.45
2024-02-18T19:59:23.436Z,10.31
2024-02-18T20:04:26.680Z,10.22
2024-02-18T20:09:33.835Z,10.17
2024-02-18T20:14:42.030Z,10.01
2024-02-18T20:19:45.691Z,9.95
2024-02-18T20:24:50.156Z,9.85
2024-02-18T20:29:54.698Z,9.83
2024-02-18T20:34:58.465Z,9.87
2024-02-18T20:40:10.356Z,9.79
2024-02-18T20:45:15.059Z,9.72
2024-02-18T20:50:18.407Z,9.70
2024-02-18T20:55:23.643Z,9.66
2024-02-18T21:00:28.659Z,9.67
2024-02-18T21:05:32.270Z,9.72
2024-02-18T21:10:35.373Z,9.68
2024-02-18T21:15:40.064Z,9.61
2024-02-18T21:20:43.173Z,9.40
2024-02-18T21:25:46.354Z,9.39
2024-02-18T21:30:50.868Z,9.29
2024-02-18T21:35:54.335Z,9.37
2024-02-18T21:40:57.447Z,9.38
2024-02-18T21:46:02.068Z,9.19
2024-02-18T21:51:06.182Z,9.08
2024-02-18T21:56:09.519Z,8.88
2024-02-18T22:01:14.378Z,8.66
2024-02-18T22:06:17.553Z,8.75
2024-02-18T22:11:20.760Z,8.73
2024-02-18T22:16:25.279Z,9.02
2024-02-18T22:21:28.397Z,8.96
2024-02-18T22:26:38.030Z,9.05
2024-02-18T22:31:44.359Z,8.94
2024-02-18T22:36:47.920Z,8.80
2024-02-18T22:41:51.053Z,8.70
2024-02-18T22:46:55.508Z,8.77
2024-02-18T22:51:58.648Z,8.89
2024-02-18T22:57:01.846Z,8.82
2024-02-18T23:02:06.849Z,8.83
2024-02-18T23:07:09.992Z,8.77
2024-02-18T23:12:13.119Z,8.75
2024-02-18T23:17:17.548Z,8.89
2024-02-18T23:22:20.676Z,8.88
2024-02-18T23:27:23.931Z,8.83
2024-02-18T23:32:28.447Z,8.90
2024-02-18T23:37:31.575Z,8.87
2024-02-18T23:42:34.735Z,8.79
2024-02-18T23:47:39.203Z,8.81
2024-02-18T23:52:42.325Z,8.80
2024-02-18T23:57:46.416Z,8.90
